createdAt,value
2019-05-11T00:15:55.886Z,62.94
2019-05-11T00:30:51.519Z,63.49
2019-05-11T00:45:50.816Z,64.24
2019-05-11T01:00:53.318Z,64.63
2019-05-11T01:15:53.094Z,64.98
2019-05-11T02:30:56.671Z,64.70
2019-05-11T03:00:49.228Z,65.76
2019-05-11T03:30:51.021Z,66.98
2019-05-11T03:45:49.127Z,64.02
2019-05-11T04:00:49.063Z,57.46
2019-05-11T04:15:49.850Z,50.68
2019-05-11T04:30:52.075Z,44.89
2019-05-11T04:45:49.825Z,40.25
2019-05-11T05:00:52.266Z,37.84
2019-05-11T05:15:49.279Z,35.60
2019-05-11T05:30:49.698Z,33.94
2019-05-11T05:45:50.102Z,33.06
2019-05-11T06:00:56.468Z,31.89
2019-05-11T06:15:49.690Z,32.54
2019-05-11T06:30:49.890Z,31.33
2019-05-11T06:45:51.867Z,30.59
2019-05-11T07:00:49.889Z,29.84
2019-05-11T07:15:53.495Z,29.90
2019-05-11T07:30:50.659Z,30.84
2019-05-11T07:45:49.207Z,30.26
2019-05-11T08:00:58.141Z,30.64
2019-05-11T08:15:50.549Z,30.56
2019-05-11T08:30:49.258Z,28.92
2019-05-11T08:45:49.978Z,26.63
2019-05-11T09:15:51.513Z,24.99
2019-05-11T09:30:49.785Z,24.11
2019-05-11T09:45:51.948Z,24.17
2019-05-11T10:00:53.727Z,23.88
2019-05-11T10:16:04.568Z,23.68
2019-05-11T10:30:49.634Z,22.83
2019-05-11T10:45:55.692Z,22.44
2019-05-11T11:00:49.908Z,23.55
2019-05-11T11:15:49.535Z,24.10
2019-05-11T11:30:49.528Z,24.56
2019-05-11T11:45:49.411Z,30.78
2019-05-11T12:00:49.345Z,29.45
2019-05-11T12:15:49.372Z,27.27
2019-05-11T12:30:58.642Z,28.74
2019-05-11T12:45:50.890Z,28.85
2019-05-11T13:00:52.274Z,28.29
2019-05-11T13:30:49.988Z,30.64
2019-05-11T13:45:52.312Z,29.85
2019-05-11T14:00:54.006Z,29.76
2019-05-11T14:15:50.916Z,30.11
2019-05-11T14:30:49.246Z,30.52
2019-05-11T14:45:49.045Z,31.57
2019-05-11T15:00:49.001Z,31.64
2019-05-11T15:15:50.262Z,32.02
2019-05-11T15:31:00.090Z,33.10
2019-05-11T15:45:59.518Z,33.24
2019-05-11T16:00:49.213Z,34.13
2019-05-11T16:15:49.146Z,34.15
2019-05-11T16:30:49.523Z,34.75
2019-05-11T16:45:52.458Z,35.46
2019-05-11T17:00:51.829Z,37.64
2019-05-11T17:15:48.841Z,39.29
2019-05-11T17:30:48.801Z,40.31
2019-05-11T18:00:51.517Z,41.69
2019-05-11T18:15:49.980Z,42.45
2019-05-11T18:30:52.010Z,43.21
2019-05-11T18:45:51.494Z,45.11
2019-05-11T19:00:51.114Z,46.31
2019-05-11T19:30:51.690Z,48.88
2019-05-11T19:45:51.617Z,48.81
2019-05-11T20:00:57.988Z,49.29
2019-05-11T20:15:57.979Z,50.60
2019-05-11T20:30:49.344Z,51.62
2019-05-11T20:45:49.693Z,52.67
2019-05-11T21:00:49.606Z,53.54
2019-05-11T21:15:49.052Z,54.61
2019-05-11T21:30:49.995Z,55.00
2019-05-11T21:45:49.936Z,55.22
2019-05-11T22:00:52.008Z,56.28
2019-05-11T22:45:53.563Z,58.12
2019-05-11T23:00:49.436Z,58.75
2019-05-11T23:15:49.432Z,59.57
2019-05-11T23:30:49.812Z,60.40
2019-05-11T23:45:49.430Z,61.55
